createdAt,value
2022-09-25T00:00:03.702Z,77.03
2022-09-25T00:01:03.759Z,76.86
2022-09-25T00:02:03.884Z,76.96
2022-09-25T00:03:04.062Z,76.86
2022-09-25T00:04:03.759Z,77.17
2022-09-25T00:05:03.656Z,77.06
2022-09-25T00:06:03.637Z,77.37
2022-09-25T00:07:03.650Z,77.03
2022-09-25T00:08:03.615Z,76.92
2022-09-25T00:09:05.870Z,76.72
2022-09-25T00:10:03.620Z,76.21
2022-09-25T00:11:03.592Z,76.42
2022-09-25T00:12:03.577Z,76.11
2022-09-25T00:13:03.602Z,76.42
2022-09-25T00:14:03.656Z,76.21
2022-09-25T00:15:03.550Z,76.01
2022-09-25T00:16:03.529Z,76.31
2022-09-25T00:17:03.679Z,76.31
2022-09-25T00:18:03.507Z,75.91
2022-09-25T00:19:03.538Z,76.35
2022-09-25T00:20:03.490Z,76.35
2022-09-25T00:21:03.493Z,76.76
2022-09-25T00:22:03.460Z,76.76
2022-09-25T00:23:03.447Z,77.00
2022-09-25T00:24:03.726Z,77.40
2022-09-25T00:25:03.555Z,77.20
2022-09-25T00:26:03.428Z,77.30
2022-09-25T00:27:03.426Z,77.30
2022-09-25T00:28:03.397Z,77.10
2022-09-25T00:29:03.405Z,77.61
2022-09-25T00:30:03.384Z,77.55
2022-09-25T00:31:03.470Z,77.75
2022-09-25T00:32:03.356Z,77.95
2022-09-25T00:33:03.341Z,77.91
2022-09-25T00:34:03.446Z,77.10
2022-09-25T00:35:03.337Z,77.51
2022-09-25T00:36:03.321Z,77.10
2022-09-25T00:37:03.318Z,77.10
2022-09-25T00:38:03.296Z,77.20
2022-09-25T00:39:03.269Z,77.20
2022-09-25T00:40:03.281Z,76.83
2022-09-25T00:41:03.288Z,77.14
2022-09-25T00:42:03.245Z,77.55
2022-09-25T00:43:03.240Z,77.64
2022-09-25T00:44:03.328Z,77.75
2022-09-25T00:45:03.223Z,77.14
2022-09-25T00:46:03.254Z,77.37
2022-09-25T00:47:03.190Z,77.68
2022-09-25T00:48:03.200Z,77.78
2022-09-25T00:49:03.178Z,77.98
2022-09-25T00:50:03.180Z,78.30
2022-09-25T00:51:03.203Z,78.05
2022-09-25T00:52:03.156Z,77.98
2022-09-25T00:53:03.115Z,78.19
2022-09-25T00:54:03.178Z,78.30
2022-09-25T00:55:03.101Z,78.02
2022-09-25T00:56:03.120Z,78.43
2022-09-25T00:57:03.096Z,78.43
2022-09-25T00:58:03.080Z,78.39
2022-09-25T00:59:03.087Z,78.39
2022-09-25T01:00:03.069Z,78.39
2022-09-25T01:01:03.140Z,77.78
2022-09-25T01:02:03.082Z,77.89
2022-09-25T01:03:03.066Z,77.78
2022-09-25T01:04:03.073Z,77.85
2022-09-25T01:05:03.027Z,77.68
2022-09-25T01:06:02.978Z,77.44
2022-09-25T01:07:02.989Z,77.55
2022-09-25T01:08:02.954Z,77.24
2022-09-25T01:09:02.942Z,77.55
2022-09-25T01:10:02.987Z,77.24
2022-09-25T01:11:02.949Z,77.37
2022-09-25T01:12:02.921Z,77.78
2022-09-25T01:13:02.933Z,77.98
2022-09-25T01:14:02.960Z,78.30
2022-09-25T01:15:02.886Z,78.30
2022-09-25T01:16:02.865Z,78.43
2022-09-25T01:17:02.967Z,78.39
2022-09-25T01:18:02.876Z,78.43
2022-09-25T01:19:02.837Z,78.43
2022-09-25T01:20:02.822Z,78.30
2022-09-25T01:21:02.820Z,78.33
2022-09-25T01:22:02.835Z,78.74
2022-09-25T01:23:02.798Z,78.94
2022-09-25T01:24:02.913Z,78.74
2022-09-25T01:25:02.869Z,79.08
2022-09-25T01:26:02.757Z,78.98
2022-09-25T01:27:02.786Z,79.28
2022-09-25T01:28:02.736Z,79.28
2022-09-25T01:29:02.743Z,79.49
2022-09-25T01:30:02.721Z,79.80
2022-09-25T01:31:02.834Z,79.59
2022-09-25T01:32:02.693Z,79.25
2022-09-25T01:33:02.696Z,79.04
2022-09-25T01:34:02.688Z,79.04
2022-09-25T01:35:02.659Z,79.35
2022-09-25T01:36:02.657Z,78.84
2022-09-25T01:37:02.633Z,78.94
2022-09-25T01:38:02.666Z,78.94
2022-09-25T01:39:02.615Z,78.80
2022-09-25T01:40:02.620Z,78.94
2022-09-25T01:41:02.595Z,79.04
2022-09-25T01:42:02.588Z,79.04
2022-09-25T01:43:02.600Z,79.04
2022-09-25T01:44:02.571Z,78.94
2022-09-25T01:45:02.648Z,78.84
2022-09-25T01:46:02.620Z,78.80
2022-09-25T01:47:02.569Z,78.43
2022-09-25T01:48:02.527Z,78.33
2022-09-25T01:49:02.503Z,78.23
2022-09-25T01:50:02.493Z,78.53
2022-09-25T01:51:02.488Z,78.94
2022-09-25T01:52:02.467Z,78.94
2022-09-25T01:53:02.470Z,78.50
2022-09-25T01:54:02.467Z,78.53
2022-09-25T01:55:02.486Z,78.30
2022-09-25T01:56:02.423Z,78.39
2022-09-25T01:57:02.412Z,78.30
2022-09-25T01:58:02.428Z,78.39
2022-09-25T01:59:02.400Z,78.09
2022-09-25T02:00:02.400Z,78.74
2022-09-25T02:01:02.501Z,78.74
2022-09-25T02:02:02.442Z,78.84
2022-09-25T02:03:02.440Z,79.04
2022-09-25T02:04:02.337Z,79.04
2022-09-25T02:05:02.397Z,79.25
2022-09-25T02:06:02.331Z,79.14
2022-09-25T02:07:02.314Z,78.94
2022-09-25T02:08:02.300Z,79.45
2022-09-25T02:09:02.478Z,79.25
2022-09-25T02:10:02.267Z,79.04
2022-09-25T02:11:02.394Z,79.14
2022-09-25T02:12:02.255Z,79.04
2022-09-25T02:13:02.241Z,78.84
2022-09-25T02:14:02.288Z,79.04
2022-09-25T02:15:02.214Z,78.84
2022-09-25T02:16:02.203Z,78.43
2022-09-25T02:17:02.260Z,78.80
2022-09-25T02:18:02.208Z,78.91
2022-09-25T02:19:02.174Z,78.91
2022-09-25T02:20:02.166Z,78.60
2022-09-25T02:21:02.200Z,79.00
2022-09-25T02:22:02.141Z,78.94
2022-09-25T02:23:02.147Z,79.04
2022-09-25T02:24:02.141Z,78.94
2022-09-25T02:25:02.104Z,79.45
2022-09-25T02:26:02.140Z,78.84
2022-09-25T02:27:02.133Z,79.04
2022-09-25T02:28:02.077Z,79.04
2022-09-25T02:29:02.089Z,79.14
2022-09-25T02:30:02.053Z,79.25
2022-09-25T02:31:02.148Z,79.04
2022-09-25T02:32:02.055Z,78.94
2022-09-25T02:33:02.117Z,78.94
2022-09-25T02:34:02.017Z,79.14
2022-09-25T02:35:02.023Z,79.04
2022-09-25T02:36:02.006Z,79.00
2022-09-25T02:37:01.980Z,78.80
2022-09-25T02:38:01.970Z,78.84
2022-09-25T02:39:01.962Z,78.80
2022-09-25T02:40:01.988Z,78.39
2022-09-25T02:41:01.950Z,78.50
2022-09-25T02:42:01.929Z,78.39
2022-09-25T02:43:01.909Z,78.64
2022-09-25T02:44:01.906Z,78.74
2022-09-25T02:45:01.892Z,79.04
2022-09-25T02:46:02.072Z,79.04
2022-09-25T02:47:01.869Z,78.64
2022-09-25T02:48:01.876Z,79.25
2022-09-25T02:49:01.856Z,79.14
2022-09-25T02:50:01.836Z,79.14
2022-09-25T02:51:01.850Z,79.04
2022-09-25T02:52:01.841Z,79.25
2022-09-25T02:53:01.806Z,79.35
2022-09-25T02:54:01.809Z,79.14
2022-09-25T02:55:01.776Z,78.80
2022-09-25T02:56:01.761Z,78.70
2022-09-25T02:57:04.294Z,79.21
2022-09-25T02:58:01.785Z,79.00
2022-09-25T02:59:01.739Z,78.60
2022-09-25T03:00:01.725Z,78.39
2022-09-25T03:01:01.804Z,78.39
2022-09-25T03:02:01.786Z,78.30
2022-09-25T03:03:01.720Z,78.39
2022-09-25T03:04:01.729Z,78.60
2022-09-25T03:05:01.680Z,78.60
2022-09-25T03:06:01.659Z,78.70
2022-09-25T03:07:01.663Z,78.91
2022-09-25T03:08:01.655Z,78.80
2022-09-25T03:09:01.624Z,78.87
2022-09-25T03:10:01.676Z,79.07
2022-09-25T03:11:01.604Z,78.77
2022-09-25T03:12:01.618Z,78.77
2022-09-25T03:13:01.589Z,78.36
2022-09-25T03:14:01.567Z,78.56
2022-09-25T03:15:01.558Z,78.46
2022-09-25T03:16:01.681Z,78.36
2022-09-25T03:17:01.534Z,78.46
2022-09-25T03:18:01.580Z,78.46
2022-09-25T03:19:01.518Z,78.70
2022-09-25T03:20:01.515Z,79.11
2022-09-25T03:21:01.504Z,79.32
2022-09-25T03:22:01.479Z,79.11
2022-09-25T03:23:01.473Z,79.00
2022-09-25T03:24:01.496Z,79.00
2022-09-25T03:25:01.445Z,79.21
2022-09-25T03:26:01.443Z,79.11
2022-09-25T03:27:01.435Z,79.11
2022-09-25T03:28:01.441Z,79.82
2022-09-25T03:29:01.398Z,79.72
2022-09-25T03:30:01.476Z,79.32
2022-09-25T03:31:01.540Z,79.41
2022-09-25T03:32:01.366Z,79.17
2022-09-25T03:33:01.355Z,79.07
2022-09-25T03:34:01.341Z,78.97
2022-09-25T03:35:01.345Z,79.17
2022-09-25T03:36:01.335Z,79.27
2022-09-25T03:37:01.354Z,79.07
2022-09-25T03:38:01.311Z,78.97
2022-09-25T03:39:01.321Z,79.11
2022-09-25T03:40:01.298Z,79.48
2022-09-25T03:41:01.389Z,79.68
2022-09-25T03:42:01.280Z,80.02
2022-09-25T03:43:01.260Z,80.23
2022-09-25T03:44:01.286Z,80.23
2022-09-25T03:45:01.232Z,80.09
2022-09-25T03:46:01.256Z,79.99
2022-09-25T03:47:01.275Z,80.09
2022-09-25T03:48:01.189Z,80.19
2022-09-25T03:49:01.287Z,80.40
2022-09-25T03:50:01.180Z,80.40
2022-09-25T03:51:01.165Z,79.99
2022-09-25T03:52:01.163Z,79.89
2022-09-25T03:53:01.154Z,80.09
2022-09-25T03:54:01.128Z,80.60
2022-09-25T03:55:01.158Z,80.40
2022-09-25T03:56:01.105Z,80.19
2022-09-25T03:57:01.122Z,79.79
2022-09-25T03:58:01.098Z,79.89
2022-09-25T03:59:01.075Z,79.89
2022-09-25T04:00:01.056Z,79.79
2022-09-25T04:01:01.152Z,79.64
2022-09-25T04:02:01.099Z,79.64
2022-09-25T04:03:01.024Z,79.64
2022-09-25T04:04:01.011Z,79.34
2022-09-25T04:05:01.021Z,79.14
2022-09-25T04:06:00.994Z,79.03
2022-09-25T04:07:01.060Z,78.89
2022-09-25T04:08:00.971Z,79.00
2022-09-25T04:09:00.989Z,78.89
2022-09-25T04:10:00.951Z,78.89
2022-09-25T04:11:00.950Z,78.89
2022-09-25T04:12:00.957Z,79.10
2022-09-25T04:13:00.959Z,78.96
2022-09-25T04:14:00.903Z,79.27
2022-09-25T04:15:00.908Z,78.96
2022-09-25T04:16:00.934Z,78.96
2022-09-25T04:17:00.875Z,79.27
2022-09-25T04:18:05.793Z,78.86
2022-09-25T04:19:00.913Z,78.66
2022-09-25T04:20:00.837Z,78.96
2022-09-25T04:21:00.825Z,78.76
2022-09-25T04:22:00.824Z,78.66
2022-09-25T04:23:00.805Z,79.06
2022-09-25T04:24:00.811Z,79.20
2022-09-25T04:25:00.810Z,78.96
2022-09-25T04:26:00.772Z,79.00
2022-09-25T04:27:00.779Z,78.89
2022-09-25T04:28:00.764Z,78.96
2022-09-25T04:29:00.741Z,78.96
2022-09-25T04:30:00.736Z,79.16
2022-09-25T04:31:00.896Z,78.66
2022-09-25T04:32:00.785Z,78.96
2022-09-25T04:33:00.695Z,79.30
2022-09-25T04:34:00.692Z,79.06
2022-09-25T04:35:00.712Z,79.00
2022-09-25T04:36:00.681Z,79.00
2022-09-25T04:37:00.682Z,79.00
2022-09-25T04:38:00.722Z,78.89
2022-09-25T04:39:00.659Z,79.71
2022-09-25T04:40:00.647Z,79.85
2022-09-25T04:41:00.634Z,79.95
2022-09-25T04:42:00.617Z,80.26
2022-09-25T04:43:00.582Z,80.36
2022-09-25T04:44:00.657Z,79.95
2022-09-25T04:45:00.560Z,79.54
2022-09-25T04:46:00.633Z,80.16
2022-09-25T04:47:00.550Z,80.02
2022-09-25T04:48:00.563Z,80.02
2022-09-25T04:49:00.520Z,80.22
2022-09-25T04:50:00.534Z,80.63
2022-09-25T04:51:00.532Z,79.50
2022-09-25T04:52:00.491Z,79.71
2022-09-25T04:53:00.502Z,79.81
2022-09-25T04:54:00.478Z,79.61
2022-09-25T04:55:00.453Z,79.71
2022-09-25T04:56:00.441Z,79.37
2022-09-25T04:57:00.474Z,79.27
2022-09-25T04:58:00.457Z,78.86
2022-09-25T04:59:00.433Z,79.06
2022-09-25T05:00:00.394Z,79.06
2022-09-25T05:01:00.438Z,78.96
2022-09-25T05:02:00.509Z,78.96
2022-09-25T05:03:00.554Z,78.76
2022-09-25T05:04:03.759Z,79.27
2022-09-25T05:05:00.362Z,78.96
2022-09-25T05:06:00.333Z,78.96
2022-09-25T05:07:00.319Z,78.96
2022-09-25T05:08:00.322Z,79.06
2022-09-25T05:09:00.320Z,78.82
2022-09-25T05:10:00.360Z,79.16
2022-09-25T05:11:00.287Z,79.16
2022-09-25T05:12:00.266Z,78.92
2022-09-25T05:13:00.272Z,79.02
2022-09-25T05:14:00.244Z,78.62
2022-09-25T05:15:00.248Z,78.82
2022-09-25T05:16:00.337Z,78.52
2022-09-25T05:17:00.225Z,78.72
2022-09-25T05:18:00.204Z,78.72
2022-09-25T05:19:00.193Z,78.82
2022-09-25T05:20:00.211Z,78.62
2022-09-25T05:21:00.172Z,79.33
2022-09-25T05:22:00.193Z,78.82
2022-09-25T05:23:00.163Z,78.72
2022-09-25T05:24:00.163Z,78.62
2022-09-25T05:25:00.125Z,78.82
2022-09-25T05:26:00.118Z,78.52
2022-09-25T05:27:00.113Z,78.72
2022-09-25T05:28:00.123Z,78.72
2022-09-25T05:29:00.128Z,78.82
2022-09-25T05:30:00.068Z,78.62
2022-09-25T05:31:00.197Z,78.72
2022-09-25T05:32:00.040Z,79.13
2022-09-25T05:33:00.034Z,78.86
2022-09-25T05:34:00.027Z,79.06
2022-09-25T05:35:00.007Z,79.33
2022-09-25T05:36:00.025Z,79.57
2022-09-25T05:37:00.009Z,79.57
2022-09-25T05:37:59.999Z,79.68
2022-09-25T05:39:00.019Z,79.68
2022-09-25T05:39:59.965Z,80.18
2022-09-25T05:41:00.028Z,80.08
2022-09-25T05:41:59.929Z,80.18
2022-09-25T05:42:59.954Z,79.91
2022-09-25T05:43:59.994Z,79.98
2022-09-25T05:45:04.923Z,80.08
2022-09-25T05:46:01.008Z,79.88
2022-09-25T05:46:59.879Z,79.77
2022-09-25T05:47:59.867Z,79.88
2022-09-25T05:48:59.881Z,79.88
2022-09-25T05:49:59.842Z,79.98
2022-09-25T05:50:59.872Z,79.88
2022-09-25T05:51:59.821Z,79.98
2022-09-25T05:52:59.809Z,79.77
2022-09-25T05:53:59.797Z,79.88
2022-09-25T05:54:59.813Z,79.88
2022-09-25T05:55:59.818Z,79.84
2022-09-25T05:56:59.806Z,80.04
2022-09-25T05:57:59.754Z,79.74
2022-09-25T05:58:59.746Z,79.43
2022-09-25T05:59:59.737Z,79.53
2022-09-25T06:00:59.744Z,79.13
2022-09-25T06:01:59.761Z,79.02
2022-09-25T06:02:59.789Z,78.92
2022-09-25T06:03:59.713Z,78.99
2022-09-25T06:04:59.682Z,78.89
2022-09-25T06:05:59.680Z,78.99
2022-09-25T06:06:59.674Z,78.68
2022-09-25T06:07:59.649Z,78.89
2022-09-25T06:08:59.674Z,78.78
2022-09-25T06:09:59.622Z,78.78
2022-09-25T06:10:59.611Z,78.78
2022-09-25T06:11:59.620Z,79.09
2022-09-25T06:12:59.600Z,79.29
2022-09-25T06:13:59.692Z,79.70
2022-09-25T06:14:59.591Z,80.11
2022-09-25T06:15:59.658Z,80.21
2022-09-25T06:16:59.569Z,80.11
2022-09-25T06:17:59.547Z,80.11
2022-09-25T06:18:59.621Z,80.31
2022-09-25T06:19:59.533Z,80.00
2022-09-25T06:20:59.516Z,80.00
2022-09-25T06:21:59.489Z,79.80
2022-09-25T06:22:59.493Z,79.80
2022-09-25T06:23:59.488Z,79.39
2022-09-25T06:24:59.454Z,79.90
2022-09-25T06:25:59.462Z,80.00
2022-09-25T06:26:59.431Z,80.41
2022-09-25T06:27:59.425Z,80.31
2022-09-25T06:29:03.027Z,80.41
2022-09-25T06:29:59.401Z,80.41
2022-09-25T06:30:59.481Z,80.21
2022-09-25T06:31:59.398Z,80.41
2022-09-25T06:32:59.425Z,80.62
2022-09-25T06:33:59.363Z,80.31
2022-09-25T06:34:59.363Z,80.51
2022-09-25T06:35:59.363Z,80.62
2022-09-25T06:36:59.346Z,80.31
2022-09-25T06:37:59.325Z,80.41
2022-09-25T06:38:59.338Z,80.41
2022-09-25T06:39:59.311Z,80.41
2022-09-25T06:41:00.269Z,80.92
2022-09-25T06:41:59.267Z,80.51
2022-09-25T06:42:59.285Z,80.62
2022-09-25T06:43:59.245Z,80.92
2022-09-25T06:44:59.234Z,81.53
2022-09-25T06:45:59.280Z,81.63
2022-09-25T06:46:59.258Z,81.43
2022-09-25T06:47:59.200Z,81.33
2022-09-25T06:48:59.209Z,80.72
2022-09-25T06:49:59.181Z,80.72
2022-09-25T06:50:59.169Z,80.82
2022-09-25T06:51:59.184Z,81.19
2022-09-25T06:52:59.152Z,80.92
2022-09-25T06:53:59.155Z,81.19
2022-09-25T06:54:59.137Z,80.98
2022-09-25T06:55:59.113Z,81.09
2022-09-25T06:56:59.102Z,81.39
2022-09-25T06:57:59.090Z,80.88
2022-09-25T06:58:59.108Z,81.59
2022-09-25T06:59:59.103Z,81.29
2022-09-25T07:00:59.123Z,81.49
2022-09-25T07:01:59.203Z,80.68
2022-09-25T07:02:59.157Z,80.94
2022-09-25T07:03:59.062Z,81.90
2022-09-25T07:04:59.030Z,81.70
2022-09-25T07:05:59.019Z,81.66
2022-09-25T07:06:58.992Z,81.56
2022-09-25T07:07:58.987Z,81.76
2022-09-25T07:08:59.004Z,81.05
2022-09-25T07:09:59.025Z,81.76
2022-09-25T07:10:58.947Z,80.74
2022-09-25T07:11:58.950Z,80.94
2022-09-25T07:12:58.925Z,81.15
2022-09-25T07:13:58.932Z,80.71
2022-09-25T07:14:58.945Z,81.45
2022-09-25T07:15:58.998Z,81.21
2022-09-25T07:16:58.910Z,80.74
2022-09-25T07:17:58.890Z,80.50
2022-09-25T07:18:58.859Z,81.35
2022-09-25T07:19:58.853Z,81.41
2022-09-25T07:20:58.851Z,80.91
2022-09-25T07:21:58.850Z,81.31
2022-09-25T07:22:58.819Z,81.41
2022-09-25T07:23:58.966Z,80.80
2022-09-25T07:24:58.796Z,81.41
2022-09-25T07:25:58.839Z,81.31
2022-09-25T07:26:58.801Z,81.52
2022-09-25T07:27:58.773Z,80.50
2022-09-25T07:28:58.757Z,80.30
2022-09-25T07:29:58.750Z,80.30
2022-09-25T07:30:58.906Z,80.40
2022-09-25T07:31:58.734Z,80.50
2022-09-25T07:33:00.283Z,79.99
2022-09-25T07:33:58.692Z,79.99
2022-09-25T07:34:58.716Z,79.38
2022-09-25T07:35:58.672Z,79.99
2022-09-25T07:36:58.702Z,79.99
2022-09-25T07:37:58.669Z,79.69
2022-09-25T07:38:58.636Z,79.35
2022-09-25T07:39:58.627Z,79.75
2022-09-25T07:40:58.713Z,79.55
2022-09-25T07:41:58.613Z,79.55
2022-09-25T07:42:58.618Z,79.55
2022-09-25T07:44:58.599Z,79.72
2022-09-25T07:45:58.617Z,79.55
2022-09-25T07:46:58.556Z,78.91
2022-09-25T07:47:58.540Z,78.84
2022-09-25T07:48:58.571Z,78.91
2022-09-25T07:49:58.556Z,79.41
2022-09-25T07:50:58.537Z,79.00
2022-09-25T07:51:58.501Z,78.80
2022-09-25T07:52:58.503Z,79.00
2022-09-25T07:53:58.489Z,78.80
2022-09-25T07:54:58.459Z,78.50
2022-09-25T07:56:03.577Z,78.91
2022-09-25T07:56:58.478Z,78.36
2022-09-25T07:57:58.454Z,78.36
2022-09-25T07:58:58.437Z,78.66
2022-09-25T07:59:58.403Z,78.16
2022-09-25T08:00:58.392Z,78.66
2022-09-25T08:01:58.470Z,78.26
2022-09-25T08:02:58.449Z,78.46
2022-09-25T08:03:58.388Z,78.46
2022-09-25T08:04:58.379Z,78.36
2022-09-25T08:05:58.366Z,78.97
2022-09-25T08:06:58.329Z,78.33
2022-09-25T08:07:58.315Z,78.53
2022-09-25T08:08:58.436Z,78.02
2022-09-25T08:09:58.316Z,78.08
2022-09-25T08:10:58.325Z,77.98
2022-09-25T08:11:58.273Z,78.08
2022-09-25T08:12:58.278Z,77.58
2022-09-25T08:13:58.251Z,77.68
2022-09-25T08:14:58.249Z,77.28
2022-09-25T08:15:58.287Z,76.87
2022-09-25T08:16:58.222Z,76.67
2022-09-25T08:17:58.208Z,77.48
2022-09-25T08:18:58.208Z,77.28
2022-09-25T08:19:58.194Z,76.56
2022-09-25T08:20:58.177Z,77.17
2022-09-25T08:21:58.187Z,77.37
2022-09-25T08:22:58.148Z,77.24
2022-09-25T08:23:58.139Z,76.93
2022-09-25T08:24:58.281Z,76.73
2022-09-25T08:25:58.121Z,76.23
2022-09-25T08:26:58.141Z,76.03
2022-09-25T08:27:58.124Z,76.03
2022-09-25T08:28:58.095Z,76.32
2022-09-25T08:29:58.069Z,75.82
2022-09-25T08:30:58.139Z,76.12
2022-09-25T08:31:58.054Z,76.53
2022-09-25T08:32:58.052Z,76.53
2022-09-25T08:34:06.175Z,75.28
2022-09-25T08:34:58.031Z,75.18
2022-09-25T08:35:58.080Z,74.57
2022-09-25T08:36:57.996Z,74.94
2022-09-25T08:37:57.995Z,74.63
2022-09-25T08:38:57.998Z,74.80
2022-09-25T08:39:57.959Z,74.70
2022-09-25T08:40:58.022Z,74.50
2022-09-25T08:41:57.959Z,73.32
2022-09-25T08:42:57.926Z,73.28
2022-09-25T08:43:57.948Z,72.28
2022-09-25T08:45:20.052Z,71.77
2022-09-25T08:45:57.934Z,71.87
2022-09-25T08:46:57.882Z,72.38
2022-09-25T08:47:57.901Z,71.47
2022-09-25T08:48:57.899Z,71.97
2022-09-25T08:49:57.870Z,71.64
2022-09-25T08:50:57.882Z,72.14
2022-09-25T08:51:57.829Z,71.64
2022-09-25T08:52:57.817Z,71.33
2022-09-25T08:53:57.813Z,71.03
2022-09-25T08:54:57.807Z,71.30
2022-09-25T08:55:57.816Z,72.00
2022-09-25T08:56:57.799Z,70.83
2022-09-25T08:57:57.762Z,70.79
2022-09-25T08:58:57.759Z,70.29
2022-09-25T09:00:01.523Z,70.79
2022-09-25T09:00:57.806Z,70.06
2022-09-25T09:01:57.739Z,69.55
2022-09-25T09:02:57.825Z,69.04
2022-09-25T09:03:57.695Z,68.95
2022-09-25T09:04:57.697Z,69.42
2022-09-25T09:05:57.673Z,69.42
2022-09-25T09:07:25.088Z,69.04
2022-09-25T09:07:58.671Z,69.24
2022-09-25T09:08:57.641Z,69.45
2022-09-25T09:09:57.635Z,69.35
2022-09-25T09:10:57.623Z,70.39
2022-09-25T09:11:57.608Z,70.09
2022-09-25T09:12:57.716Z,69.75
2022-09-25T09:13:57.612Z,69.55
2022-09-25T09:14:57.574Z,69.92
2022-09-25T09:15:57.648Z,69.52
2022-09-25T09:16:57.561Z,69.28
2022-09-25T09:17:57.579Z,69.52
2022-09-25T09:18:57.546Z,69.28
2022-09-25T09:19:57.521Z,69.28
2022-09-25T09:20:57.510Z,69.18
2022-09-25T09:21:57.502Z,68.17
2022-09-25T09:22:57.616Z,68.27
2022-09-25T09:23:57.491Z,67.87
2022-09-25T09:24:57.484Z,68.24
2022-09-25T09:25:57.477Z,68.14
2022-09-25T09:26:57.442Z,67.63
2022-09-25T09:27:57.431Z,67.63
2022-09-25T09:28:57.488Z,67.23
2022-09-25T09:30:01.442Z,67.60
2022-09-25T09:30:57.455Z,68.01
2022-09-25T09:31:57.415Z,65.89
2022-09-25T09:32:57.377Z,67.47
2022-09-25T09:33:57.366Z,67.87
2022-09-25T09:35:12.794Z,67.97
2022-09-25T09:35:58.349Z,68.27
2022-09-25T09:36:57.366Z,67.97
2022-09-25T09:37:57.323Z,67.77
2022-09-25T09:38:57.320Z,67.36
2022-09-25T09:39:57.306Z,67.77
2022-09-25T09:40:57.375Z,67.94
2022-09-25T09:41:57.322Z,67.74
2022-09-25T09:42:57.297Z,67.94
2022-09-25T09:43:58.065Z,67.43
2022-09-25T09:44:57.261Z,67.30
2022-09-25T09:45:57.307Z,67.23
2022-09-25T09:46:57.233Z,66.93
2022-09-25T09:47:57.304Z,67.33
2022-09-25T09:48:57.208Z,66.13
2022-09-25T09:49:57.191Z,66.96
2022-09-25T09:50:57.179Z,67.36
2022-09-25T09:51:57.175Z,67.27
2022-09-25T09:52:57.173Z,67.54
2022-09-25T09:53:57.192Z,68.07
2022-09-25T09:54:57.134Z,68.27
2022-09-25T09:55:57.149Z,68.17
2022-09-25T09:56:57.134Z,67.43
2022-09-25T09:57:57.127Z,67.27
2022-09-25T09:58:57.103Z,67.63
2022-09-25T10:00:01.964Z,67.87
2022-09-25T10:00:57.089Z,68.07
2022-09-25T10:01:57.276Z,68.61
2022-09-25T10:02:57.210Z,69.18
2022-09-25T10:03:57.048Z,68.68
2022-09-25T10:04:57.320Z,68.48
2022-09-25T10:05:57.097Z,68.48
2022-09-25T10:06:57.005Z,68.34
2022-09-25T10:07:56.998Z,67.67
2022-09-25T10:08:57.017Z,68.44
2022-09-25T10:09:56.985Z,68.17
2022-09-25T10:10:56.976Z,68.17
2022-09-25T10:11:56.970Z,68.54
2022-09-25T10:12:56.949Z,68.04
2022-09-25T10:13:56.931Z,67.77
2022-09-25T10:14:56.927Z,67.94
2022-09-25T10:15:56.962Z,67.87
2022-09-25T10:16:56.922Z,68.07
2022-09-25T10:17:56.916Z,68.57
2022-09-25T10:18:56.946Z,68.17
2022-09-25T10:19:56.861Z,67.74
2022-09-25T10:20:56.862Z,67.63
2022-09-25T10:21:56.850Z,67.91
2022-09-25T10:22:56.835Z,67.88
2022-09-25T10:23:56.842Z,67.88
2022-09-25T10:24:56.809Z,66.83
2022-09-25T10:25:56.798Z,66.74
2022-09-25T10:26:56.809Z,67.03
2022-09-25T10:27:56.815Z,65.80
2022-09-25T10:28:56.779Z,65.59
2022-09-25T10:29:56.755Z,65.19
2022-09-25T10:30:56.803Z,65.59
2022-09-25T10:31:56.770Z,65.50
2022-09-25T10:32:57.916Z,65.19
2022-09-25T10:33:56.716Z,66.13
2022-09-25T10:34:56.753Z,65.73
2022-09-25T10:35:56.683Z,65.73
2022-09-25T10:36:56.672Z,65.90
2022-09-25T10:37:56.678Z,65.53
2022-09-25T10:39:12.983Z,65.83
2022-09-25T10:39:56.650Z,66.80
2022-09-25T10:40:56.685Z,65.42
2022-09-25T10:41:56.624Z,65.93
2022-09-25T10:42:56.631Z,66.23
2022-09-25T10:43:56.631Z,65.36
2022-09-25T10:44:58.054Z,65.93
2022-09-25T10:45:56.617Z,65.93
2022-09-25T10:46:56.582Z,66.03
2022-09-25T10:47:56.572Z,66.50
2022-09-25T10:48:56.577Z,66.40
2022-09-25T10:49:56.531Z,64.39
2022-09-25T10:50:56.538Z,64.79
2022-09-25T10:51:56.514Z,65.30
2022-09-25T10:52:56.523Z,65.67
2022-09-25T10:53:56.495Z,65.36
2022-09-25T10:54:56.508Z,65.56
2022-09-25T10:55:56.463Z,65.47
2022-09-25T10:56:56.484Z,65.44
2022-09-25T10:57:56.455Z,65.53
2022-09-25T10:58:56.476Z,64.33
2022-09-25T10:59:56.455Z,64.53
2022-09-25T11:00:56.431Z,63.73
2022-09-25T11:01:56.550Z,64.13
2022-09-25T11:02:56.505Z,63.82
2022-09-25T11:03:56.467Z,64.33
2022-09-25T11:04:56.383Z,64.90
2022-09-25T11:05:56.356Z,64.23
2022-09-25T11:06:56.340Z,63.79
2022-09-25T11:07:56.328Z,63.22
2022-09-25T11:08:56.335Z,63.73
2022-09-25T11:10:00.211Z,63.96
2022-09-25T11:10:56.298Z,63.35
2022-09-25T11:11:56.318Z,63.76
2022-09-25T11:12:56.279Z,63.73
2022-09-25T11:13:56.280Z,63.32
2022-09-25T11:14:57.119Z,63.62
2022-09-25T11:15:56.283Z,63.93
2022-09-25T11:16:56.344Z,63.53
2022-09-25T11:17:56.220Z,63.53
2022-09-25T11:18:58.196Z,63.29
2022-09-25T11:19:56.211Z,63.39
2022-09-25T11:20:56.229Z,63.42
2022-09-25T11:21:56.175Z,63.39
2022-09-25T11:22:56.175Z,63.59
2022-09-25T11:23:56.169Z,63.90
2022-09-25T11:25:01.034Z,63.79
2022-09-25T11:25:56.138Z,63.79
2022-09-25T11:26:56.133Z,63.29
2022-09-25T11:27:56.114Z,63.56
2022-09-25T11:28:56.120Z,63.96
2022-09-25T11:29:56.100Z,63.26
2022-09-25T11:30:56.126Z,63.70
2022-09-25T11:31:56.067Z,63.90
2022-09-25T11:32:56.075Z,63.87
2022-09-25T11:33:56.052Z,63.76
2022-09-25T11:34:56.039Z,63.06
2022-09-25T11:35:56.034Z,62.79
2022-09-25T11:36:56.026Z,62.96
2022-09-25T11:37:56.014Z,63.19
2022-09-25T11:38:56.007Z,63.49
2022-09-25T11:39:55.983Z,62.79
2022-09-25T11:40:56.036Z,63.29
2022-09-25T11:41:55.952Z,63.06
2022-09-25T11:42:55.956Z,62.89
2022-09-25T11:43:58.274Z,62.06
2022-09-25T11:44:55.914Z,61.99
2022-09-25T11:45:55.971Z,62.02
2022-09-25T11:46:55.909Z,62.92
2022-09-25T11:47:55.883Z,62.12
2022-09-25T11:48:55.881Z,62.52
2022-09-25T11:49:55.861Z,62.79
2022-09-25T11:50:55.882Z,61.79
2022-09-25T11:51:55.889Z,61.79
2022-09-25T11:52:55.864Z,62.86
2022-09-25T11:54:03.307Z,62.76
2022-09-25T11:54:55.813Z,62.16
2022-09-25T11:55:55.812Z,62.06
2022-09-25T11:56:55.789Z,61.05
2022-09-25T11:57:55.795Z,60.85
2022-09-25T11:58:55.845Z,60.65
2022-09-25T11:59:55.762Z,61.63
2022-09-25T12:00:55.748Z,61.43
2022-09-25T12:01:55.826Z,61.76
2022-09-25T12:02:55.786Z,61.93
2022-09-25T12:03:55.703Z,61.43
2022-09-25T12:04:55.697Z,61.66
2022-09-25T12:05:55.705Z,61.55
2022-09-25T12:06:55.680Z,61.96
2022-09-25T12:07:55.688Z,62.06
2022-09-25T12:08:55.670Z,62.66
2022-09-25T12:09:55.704Z,61.86
2022-09-25T12:10:55.632Z,61.93
2022-09-25T12:11:55.624Z,61.43
2022-09-25T12:12:55.619Z,61.93
2022-09-25T12:13:55.645Z,61.43
2022-09-25T12:14:55.633Z,60.80
2022-09-25T12:15:55.578Z,60.42
2022-09-25T12:16:55.562Z,60.52
2022-09-25T12:17:55.551Z,60.45
2022-09-25T12:18:55.560Z,60.35
2022-09-25T12:19:55.566Z,61.76
2022-09-25T12:20:55.570Z,61.96
2022-09-25T12:21:55.517Z,62.03
2022-09-25T12:22:55.495Z,61.83
2022-09-25T12:23:55.491Z,61.22
2022-09-25T12:24:55.494Z,61.83
2022-09-25T12:25:55.510Z,61.33
2022-09-25T12:26:55.458Z,61.83
2022-09-25T12:27:55.437Z,61.70
2022-09-25T12:28:55.462Z,60.69
2022-09-25T12:29:55.457Z,61.50
2022-09-25T12:30:55.476Z,61.80
2022-09-25T12:31:55.392Z,60.60
2022-09-25T12:32:55.406Z,60.49
2022-09-25T12:33:55.390Z,61.19
2022-09-25T12:34:55.400Z,61.70
2022-09-25T12:35:55.378Z,59.29
2022-09-25T12:36:55.339Z,59.59
2022-09-25T12:37:55.330Z,60.29
2022-09-25T12:38:55.358Z,59.89
2022-09-25T12:39:55.352Z,59.56
2022-09-25T12:40:55.401Z,59.49
2022-09-25T12:41:55.300Z,59.69
2022-09-25T12:42:55.271Z,60.49
2022-09-25T12:43:55.280Z,59.39
2022-09-25T12:44:55.257Z,59.79
2022-09-25T12:45:55.253Z,59.77
2022-09-25T12:46:55.255Z,59.09
2022-09-25T12:47:55.215Z,59.89
2022-09-25T12:48:55.248Z,59.39
2022-09-25T12:49:55.191Z,59.36
2022-09-25T12:50:55.196Z,59.49
2022-09-25T12:51:55.174Z,59.29
2022-09-25T12:52:55.193Z,59.09